»·PEaware :: FFT258 KLAS-KSNA

FFT258 :: KLAS-KSNA

FLIGHT INFORMATION

Flight Status: Arrived
Operator:
Frontier Airlines
More flights by this operator :: More flights under this callsign
Pilot: Brad M. (22842)
Aircraft: AIRBUS A319
(A319)
More flights by this aircraft type
Origin: KLAS McCarran Intl
United States
Destination: KSNA John Wayne-Orange Co
United States
More flights between these airports :: More routes between these airports
Route: +BOACH8 WHIGG FEYLA DSNEE4
File this flight plan on PilotEdge
Remarks:
Altitude:
(Current/Filed)
26,000ft
Speed:
(Current/Filed)
464kts
Departed: 10-Nov-19 07:35 PM
Arrived: 10-Nov-19 08:15 PM
Distance/Time
Traveled:
196nm/0:40
Distance/Time
To Go:
Arrived

Flight Plot

Page will automatically refresh every two minutes.

Flight plan parsing failed; only flown route is shown


Map Options




Map Legend


Flown Route
Filed Route
Departure Airport
Arrival Airport
Navaid (VOR, NDB)
Fix

Horizontal Profiles

Position Reports

Time Latitude Longitude Heading Altitude Ground
Speed
10-Nov-19 19:10 36.083195 -115.135072 239 2195ft 0kts
10-Nov-19 19:11 36.083195 -115.135072 239 2195ft 0kts
10-Nov-19 19:12 36.083195 -115.135072 239 2195ft 0kts
10-Nov-19 19:13 36.083195 -115.135072 239 2195ft 0kts
10-Nov-19 19:14 36.083195 -115.135072 239 2195ft 0kts
10-Nov-19 19:15 36.083195 -115.135072 239 2195ft 0kts
10-Nov-19 19:16 36.083195 -115.135072 239 2195ft 0kts
10-Nov-19 19:17 36.083195 -115.135072 239 2195ft 0kts
10-Nov-19 19:18 36.083195 -115.135072 239 2195ft 0kts
10-Nov-19 19:19 36.083471 -115.134564 227 2195ft 2kts
10-Nov-19 19:20 36.083753 -115.134414 134 2195ft 0kts
10-Nov-19 19:21 36.083753 -115.134413 134 2195ft 0kts
10-Nov-19 19:22 36.083753 -115.134413 134 2195ft 0kts
10-Nov-19 19:23 36.083752 -115.134412 134 2195ft 0kts
10-Nov-19 19:24 36.083459 -115.134047 135 2195ft 0kts
10-Nov-19 19:25 36.081408 -115.133748 178 2195ft 14kts
10-Nov-19 19:26 36.078919 -115.133738 181 2195ft 2kts
10-Nov-19 19:27 36.078278 -115.130644 89 2195ft 16kts
10-Nov-19 19:28 36.078290 -115.124106 88 2195ft 21kts
10-Nov-19 19:29 36.077466 -115.121428 135 2195ft 0kts
10-Nov-19 19:30 36.077465 -115.121428 135 2195ft 0kts
10-Nov-19 19:31 36.077465 -115.121427 135 2195ft 0kts
10-Nov-19 19:32 36.077465 -115.121427 135 2195ft 0kts
10-Nov-19 19:33 36.076748 -115.121228 181 2195ft 8kts
10-Nov-19 19:34 36.076416 -115.130414 268 2195ft 127kts
10-Nov-19 19:35 36.076565 -115.189954 267 4101ft 191kts
10-Nov-19 19:36 36.067678 -115.255882 231 5819ft 203kts
10-Nov-19 19:37 36.010462 -115.282117 196 7389ft 261kts
10-Nov-19 19:38 35.935562 -115.306789 184 7684ft 286kts
10-Nov-19 19:39 35.853645 -115.314727 179 10718ft 308kts
10-Nov-19 19:40 35.759791 -115.303836 173 12503ft 368kts
10-Nov-19 19:41 35.655849 -115.322916 219 14533ft 401kts
10-Nov-19 19:42 35.580483 -115.427365 229 16895ft 417kts
10-Nov-19 19:43 35.500220 -115.533426 229 19027ft 432kts
10-Nov-19 19:44 35.418105 -115.644774 229 20925ft 447kts
10-Nov-19 19:45 35.333303 -115.758631 229 22639ft 460kts
10-Nov-19 19:46 35.245523 -115.876176 228 24161ft 472kts
10-Nov-19 19:47 35.154147 -115.992927 226 25908ft 473kts
10-Nov-19 19:48 35.060299 -116.111130 227 26070ft 504kts
10-Nov-19 19:49 34.960789 -116.235812 226 26085ft 518kts
10-Nov-19 19:50 34.860225 -116.361685 227 26093ft 518kts
10-Nov-19 19:51 34.761457 -116.488347 227 25874ft 499kts
10-Nov-19 19:52 34.669070 -116.598952 220 24768ft 439kts
10-Nov-19 19:53 34.575449 -116.689302 219 22174ft 420kts
10-Nov-19 19:54 34.487279 -116.778282 223 19915ft 405kts
10-Nov-19 19:55 34.407630 -116.871358 224 17838ft 387kts
10-Nov-19 19:56 34.330770 -116.960098 224 15810ft 378kts
10-Nov-19 19:57 34.249257 -117.041588 217 14662ft 381kts
10-Nov-19 19:58 34.166412 -117.119582 218 13673ft 375kts
10-Nov-19 19:59 34.085095 -117.196322 217 12655ft 354kts
10-Nov-19 20:00 34.013361 -117.261367 210 11473ft 298kts
10-Nov-19 20:01 33.942224 -117.306195 206 10079ft 283kts
10-Nov-19 20:02 33.874712 -117.346813 206 8671ft 257kts
10-Nov-19 20:03 33.831093 -117.404895 253 7682ft 240kts
10-Nov-19 20:04 33.807582 -117.479433 250 6784ft 235kts
10-Nov-19 20:05 33.802002 -117.553718 290 6294ft 214kts
10-Nov-19 20:06 33.822324 -117.616345 291 5396ft 197kts
10-Nov-19 20:07 33.847605 -117.674597 301 5164ft 192kts
10-Nov-19 20:08 33.865746 -117.732341 248 3650ft 192kts
10-Nov-19 20:09 33.826329 -117.773208 208 3000ft 193kts
10-Nov-19 20:10 33.781468 -117.801732 208 2269ft 166kts
10-Nov-19 20:11 33.744130 -117.825430 209 1463ft 131kts
10-Nov-19 20:12 33.712806 -117.845680 206 785ft 126kts
10-Nov-19 20:13 33.681804 -117.865032 206 98ft 123kts
10-Nov-19 20:14 33.669345 -117.871835 133 70ft 13kts
10-Nov-19 20:15 33.670048 -117.869949 41 70ft 10kts
10-Nov-19 20:16 33.672984 -117.867405 50 70ft 12kts
10-Nov-19 20:17 33.675997 -117.865220 31 70ft 11kts
10-Nov-19 20:18 33.678929 -117.863422 28 70ft 14kts
10-Nov-19 20:19 33.680946 -117.861809 120 70ft 3kts
10-Nov-19 20:20 33.680700 -117.861513 138 70ft 0kts
10-Nov-19 20:21 33.680700 -117.861513 138 70ft 0kts
10-Nov-19 20:22 33.680700 -117.861513 138 70ft 0kts

Navigation Log

Ident Type
Flight plan parsing failed, navigation log unavailable